createdAt,value
2022-09-14T00:01:45.138Z,21.67
2022-09-14T00:04:15.881Z,28.48
2022-09-14T00:06:44.673Z,16.58
2022-09-14T00:09:16.383Z,16.00
2022-09-14T00:11:44.983Z,15.27
2022-09-14T00:14:13.465Z,12.02
2022-09-14T00:16:44.498Z,12.63
2022-09-14T00:19:18.344Z,12.48
2022-09-14T00:21:46.705Z,12.07
2022-09-14T00:24:15.195Z,10.43
2022-09-14T00:26:43.262Z,10.68
2022-09-14T00:29:11.958Z,10.35
2022-09-14T00:31:42.608Z,11.02
2022-09-14T00:34:14.074Z,11.38
2022-09-14T00:36:44.842Z,11.50
2022-09-14T00:39:13.485Z,10.90
2022-09-14T00:41:44.752Z,11.25
2022-09-14T00:44:46.236Z,11.23
2022-09-14T00:47:17.509Z,10.77
2022-09-14T00:49:46.320Z,10.68
2022-09-14T00:52:18.817Z,10.82
2022-09-14T00:54:50.656Z,11.25
2022-09-14T00:57:20.744Z,10.50
2022-09-14T00:59:51.935Z,10.43
2022-09-14T01:02:23.373Z,11.00
2022-09-14T01:04:52.986Z,9.27
2022-09-14T01:07:31.521Z,10.30
2022-09-14T01:10:10.198Z,10.93
2022-09-14T01:12:48.605Z,10.90
2022-09-14T01:15:22.518Z,11.85
2022-09-14T01:17:59.620Z,10.50
2022-09-14T01:20:34.050Z,12.15
2022-09-14T01:23:11.253Z,10.63
2022-09-14T01:26:03.770Z,11.52
2022-09-14T01:28:38.931Z,10.13
2022-09-14T01:31:14.282Z,9.75
2022-09-14T01:33:49.003Z,11.05
2022-09-14T01:36:18.580Z,10.63
2022-09-14T01:38:51.013Z,10.73
2022-09-14T01:41:25.538Z,10.48
2022-09-14T01:43:59.117Z,10.60
2022-09-14T01:46:31.898Z,10.50
2022-09-14T01:49:05.102Z,11.07
2022-09-14T01:51:40.047Z,10.10
2022-09-14T01:54:12.449Z,10.20
2022-09-14T01:56:46.223Z,10.70
2022-09-14T01:59:18.453Z,9.52
2022-09-14T02:01:51.347Z,10.73
2022-09-14T02:04:29.652Z,10.50
2022-09-14T02:06:58.318Z,10.20
2022-09-14T02:09:27.620Z,11.50
2022-09-14T02:12:00.638Z,11.20
2022-09-14T02:14:31.604Z,10.70
2022-09-14T02:17:00.047Z,11.18
2022-09-14T02:19:33.499Z,10.77
2022-09-14T02:22:02.038Z,10.02
2022-09-14T02:24:32.257Z,10.70
2022-09-14T02:27:02.069Z,10.40
2022-09-14T02:29:32.460Z,9.30
2022-09-14T02:32:11.183Z,10.93
2022-09-14T02:34:50.825Z,8.90
2022-09-14T02:37:22.217Z,9.43
2022-09-14T02:39:58.392Z,10.02
2022-09-14T02:42:37.035Z,8.20
2022-09-14T02:45:17.542Z,8.93
2022-09-14T02:47:55.659Z,8.68
2022-09-14T02:50:29.164Z,9.27
2022-09-14T02:53:04.808Z,9.52
2022-09-14T02:55:38.313Z,9.73
2022-09-14T02:58:08.715Z,8.82
2022-09-14T03:00:40.698Z,8.57
2022-09-14T03:03:11.312Z,8.82
2022-09-14T03:05:40.365Z,8.70
2022-09-14T03:08:10.248Z,8.43
2022-09-14T03:10:39.213Z,9.38
2022-09-14T03:13:07.492Z,8.40
2022-09-14T03:15:36.396Z,7.68
2022-09-14T03:18:11.119Z,9.70
2022-09-14T03:20:43.183Z,8.80
2022-09-14T03:23:11.764Z,8.93
2022-09-14T03:25:42.036Z,8.25
2022-09-14T03:28:12.099Z,9.00
2022-09-14T03:30:40.298Z,6.93
2022-09-14T03:33:09.728Z,8.80
2022-09-14T03:35:38.027Z,8.27
2022-09-14T03:38:06.717Z,8.30
2022-09-14T03:40:34.950Z,7.95
2022-09-14T03:43:03.270Z,9.57
2022-09-14T03:45:31.396Z,11.57
2022-09-14T03:47:59.457Z,11.98
2022-09-14T03:50:29.201Z,14.50
2022-09-14T03:52:57.294Z,22.10
2022-09-14T03:55:25.790Z,26.02
2022-09-14T03:57:55.208Z,27.42
2022-09-14T04:00:24.348Z,13.25
2022-09-14T04:02:53.065Z,31.30
2022-09-14T04:05:22.069Z,39.17
2022-09-14T04:07:51.696Z,35.20
2022-09-14T04:10:19.945Z,36.80
2022-09-14T04:12:48.728Z,36.80
2022-09-14T04:15:17.082Z,25.00
2022-09-14T04:17:45.380Z,20.38
2022-09-14T04:20:13.726Z,36.33
2022-09-14T04:22:41.837Z,41.70
2022-09-14T04:25:11.549Z,45.58
2022-09-14T04:27:39.925Z,43.42
2022-09-14T04:30:08.801Z,40.88
2022-09-14T04:32:36.934Z,51.40
2022-09-14T04:35:05.806Z,47.05
2022-09-14T04:37:34.028Z,40.83
2022-09-14T04:40:02.316Z,45.40
2022-09-14T04:42:32.737Z,16.55
2022-09-14T04:45:00.951Z,10.50
2022-09-14T04:47:30.711Z,8.45
2022-09-14T04:49:59.011Z,8.38
2022-09-14T04:52:27.238Z,7.40
2022-09-14T04:54:55.286Z,8.90
2022-09-14T04:57:23.783Z,7.80
2022-09-14T04:59:53.275Z,5.85
2022-09-14T05:02:21.788Z,7.10
2022-09-14T05:04:50.331Z,6.28
2022-09-14T05:07:18.487Z,7.07
2022-09-14T05:09:46.801Z,9.18
2022-09-14T05:12:15.205Z,14.98
2022-09-14T05:14:43.427Z,21.73
2022-09-14T05:17:12.896Z,36.38
2022-09-14T05:19:41.508Z,39.83
2022-09-14T05:22:09.761Z,45.50
2022-09-14T05:24:37.865Z,49.45
2022-09-14T05:27:06.375Z,46.15
2022-09-14T05:29:34.688Z,33.28
2022-09-14T05:32:03.327Z,48.08
2022-09-14T05:34:33.361Z,48.60
2022-09-14T05:37:01.549Z,51.33
2022-09-14T05:39:29.749Z,46.22
2022-09-14T05:41:57.998Z,53.03
2022-09-14T05:44:26.182Z,54.20
2022-09-14T05:46:54.307Z,45.92
2022-09-14T05:49:22.687Z,46.45
2022-09-14T05:51:52.167Z,48.88
2022-09-14T05:54:20.322Z,37.35
2022-09-14T05:56:48.632Z,44.90
2022-09-14T05:59:16.970Z,49.90
2022-09-14T06:01:45.139Z,48.55
2022-09-14T06:04:13.587Z,51.67
2022-09-14T06:06:46.917Z,32.20
2022-09-14T06:09:28.933Z,29.15
2022-09-14T06:11:59.296Z,25.17
2022-09-14T06:14:27.598Z,34.08
2022-09-14T06:16:55.738Z,29.20
2022-09-14T06:19:23.816Z,34.42
2022-09-14T06:21:52.121Z,42.72
2022-09-14T06:24:20.271Z,51.78
2022-09-14T06:26:50.038Z,55.15
2022-09-14T06:29:18.415Z,55.78
2022-09-14T06:31:46.851Z,51.92
2022-09-14T06:34:15.018Z,53.42
2022-09-14T06:36:43.330Z,53.20
2022-09-14T06:39:12.183Z,50.67
2022-09-14T06:41:40.286Z,48.75
2022-09-14T06:44:21.509Z,55.00
2022-09-14T06:46:49.786Z,49.25
2022-09-14T06:49:20.798Z,47.72
2022-09-14T06:51:50.381Z,54.22
2022-09-14T06:54:19.417Z,54.90
2022-09-14T06:56:47.921Z,49.80
2022-09-14T06:59:18.447Z,55.50
2022-09-14T07:01:49.835Z,53.30
2022-09-14T07:04:18.548Z,54.97
2022-09-14T07:06:48.303Z,54.45
2022-09-14T07:09:17.602Z,45.85
2022-09-14T07:11:46.779Z,50.15
2022-09-14T07:14:14.963Z,43.08
2022-09-14T07:16:43.321Z,41.28
2022-09-14T07:19:15.150Z,32.85
2022-09-14T07:21:45.855Z,48.20
2022-09-14T07:24:15.276Z,53.25
2022-09-14T07:26:43.932Z,50.30
2022-09-14T07:29:15.332Z,47.25
2022-09-14T07:31:46.924Z,47.22
2022-09-14T07:34:17.048Z,51.92
2022-09-14T07:36:45.479Z,46.17
2022-09-14T07:39:15.876Z,42.08
2022-09-14T07:41:44.382Z,44.72
2022-09-14T07:44:16.081Z,44.78
2022-09-14T07:46:46.506Z,49.10
2022-09-14T07:49:17.524Z,41.40
2022-09-14T07:51:46.616Z,21.30
2022-09-14T07:54:16.434Z,15.10
2022-09-14T07:56:45.491Z,8.95
2022-09-14T08:02:04.430Z,5.65
2022-09-14T08:04:35.156Z,3.60
2022-09-14T08:07:03.473Z,3.03
2022-09-14T08:09:31.733Z,4.88
2022-09-14T08:12:00.165Z,3.35
2022-09-14T08:14:28.525Z,3.45
2022-09-14T08:16:57.256Z,3.17
2022-09-14T08:19:26.413Z,3.47
2022-09-14T08:21:56.052Z,3.10
2022-09-14T08:24:24.368Z,3.72
2022-09-14T08:26:53.895Z,4.03
2022-09-14T08:29:22.035Z,3.92
2022-09-14T08:31:52.018Z,3.88
2022-09-14T08:34:20.995Z,4.03
2022-09-14T08:36:49.934Z,4.47
2022-09-14T08:39:20.212Z,6.55
2022-09-14T08:41:54.795Z,3.72
2022-09-14T08:44:27.064Z,2.75
2022-09-14T08:46:59.934Z,4.03
2022-09-14T08:49:41.173Z,4.85
2022-09-14T08:52:15.024Z,4.88
2022-09-14T08:54:45.277Z,6.03
2022-09-14T08:57:19.399Z,6.75
2022-09-14T08:59:55.999Z,10.18
2022-09-14T09:02:53.873Z,19.55
2022-09-14T09:05:32.940Z,15.75
2022-09-14T09:08:05.793Z,22.25
2022-09-14T09:10:37.688Z,18.58
2022-09-14T09:13:07.706Z,15.68
2022-09-14T09:15:43.302Z,28.95
2022-09-14T09:18:19.305Z,35.20
2022-09-14T09:20:51.979Z,39.30
2022-09-14T09:23:21.316Z,30.15
2022-09-14T09:25:58.791Z,37.53
2022-09-14T09:28:29.516Z,36.97
2022-09-14T09:31:01.676Z,12.35
2022-09-14T09:33:51.375Z,24.70
2022-09-14T09:36:23.540Z,28.80
2022-09-14T09:38:51.774Z,28.73
2022-09-14T09:41:24.812Z,22.30
2022-09-14T09:44:02.230Z,28.50
2022-09-14T09:46:33.030Z,17.50
2022-09-14T09:49:04.996Z,27.45
2022-09-14T09:51:34.270Z,7.32
2022-09-14T09:54:09.606Z,14.88
2022-09-14T09:56:41.578Z,16.27
2022-09-14T09:59:28.542Z,12.70
2022-09-14T10:01:57.822Z,27.40
2022-09-14T10:04:29.889Z,13.30
2022-09-14T10:06:58.666Z,30.25
2022-09-14T10:09:29.245Z,14.43
2022-09-14T10:12:01.508Z,15.15
2022-09-14T10:14:32.383Z,20.05
2022-09-14T10:17:17.446Z,7.85
2022-09-14T10:19:48.938Z,16.45
2022-09-14T10:22:28.148Z,28.95
2022-09-14T10:24:59.325Z,15.43
2022-09-14T10:27:40.523Z,25.58
2022-09-14T10:30:15.577Z,11.57
2022-09-14T10:32:50.889Z,10.68
2022-09-14T10:35:20.424Z,10.25
2022-09-14T10:38:01.698Z,5.75
2022-09-14T10:40:38.617Z,8.38
2022-09-14T10:43:16.366Z,5.85
2022-09-14T10:45:51.130Z,3.55
2022-09-14T10:48:45.233Z,5.65
2022-09-14T10:51:29.476Z,4.38
2022-09-14T10:54:08.708Z,3.72
2022-09-14T10:56:51.878Z,3.55
2022-09-14T10:59:31.917Z,4.70
2022-09-14T11:02:33.069Z,3.60
2022-09-14T11:05:15.882Z,5.45
2022-09-14T11:07:57.882Z,4.10
2022-09-14T11:10:33.590Z,4.07
2022-09-14T11:13:27.840Z,4.43
2022-09-14T11:16:07.900Z,4.00
2022-09-14T11:18:50.088Z,4.10
2022-09-14T11:21:24.348Z,6.88
2022-09-14T11:23:56.899Z,3.92
2022-09-14T11:26:44.462Z,4.03
2022-09-14T11:29:19.743Z,4.13
2022-09-14T11:32:16.763Z,4.82
2022-09-14T11:34:46.651Z,4.22
2022-09-14T11:37:18.021Z,4.10
2022-09-14T11:39:50.584Z,3.47
2022-09-14T11:42:23.940Z,2.67
2022-09-14T11:44:59.129Z,3.30
2022-09-14T11:47:35.052Z,5.05
2022-09-14T11:50:15.560Z,3.42
2022-09-14T11:52:43.755Z,6.38
2022-09-14T11:55:19.868Z,4.70
2022-09-14T11:57:49.262Z,3.67
2022-09-14T12:00:47.454Z,4.10
2022-09-14T12:03:20.610Z,5.65
2022-09-14T12:05:50.507Z,5.55
2022-09-14T12:08:41.259Z,4.10
2022-09-14T12:11:32.492Z,3.70
2022-09-14T12:14:29.535Z,3.78
2022-09-14T12:17:28.593Z,3.58
2022-09-14T12:20:00.246Z,4.82
2022-09-14T12:22:32.858Z,3.30
2022-09-14T12:25:16.292Z,3.72
2022-09-14T12:27:46.255Z,4.07
2022-09-14T12:30:57.004Z,3.92
2022-09-14T12:34:06.090Z,4.07
2022-09-14T12:37:12.350Z,4.35
2022-09-14T12:40:29.211Z,3.70
2022-09-14T12:42:57.504Z,3.53
2022-09-14T12:45:52.190Z,3.47
2022-09-14T12:48:59.625Z,3.60
2022-09-14T12:51:40.978Z,5.03
2022-09-14T12:54:22.005Z,4.47
2022-09-14T12:57:04.103Z,4.53
2022-09-14T12:59:41.369Z,2.90
2022-09-14T13:02:47.471Z,3.65
2022-09-14T13:05:17.537Z,3.65
2022-09-14T13:07:47.012Z,4.40
2022-09-14T13:10:21.161Z,3.70
2022-09-14T13:12:52.320Z,4.03
2022-09-14T13:15:24.181Z,3.55
2022-09-14T13:18:03.747Z,3.15
2022-09-14T13:20:33.485Z,3.30
2022-09-14T13:23:02.430Z,3.85
2022-09-14T13:25:34.411Z,3.83
2022-09-14T13:28:06.866Z,4.28
2022-09-14T13:30:36.669Z,3.45
2022-09-14T13:33:05.710Z,3.90
2022-09-14T13:35:37.212Z,3.75
2022-09-14T13:38:10.828Z,2.90
2022-09-14T13:40:39.196Z,4.32
2022-09-14T13:43:09.306Z,3.35
2022-09-14T13:45:37.957Z,2.80
2022-09-14T13:48:07.031Z,3.65
2022-09-14T13:50:35.690Z,3.22
2022-09-14T13:53:04.634Z,3.13
2022-09-14T13:55:45.313Z,3.78
2022-09-14T13:58:21.255Z,3.28
2022-09-14T14:00:56.240Z,2.95
2022-09-14T14:03:31.800Z,4.28
2022-09-14T14:06:00.855Z,3.65
2022-09-14T14:08:34.924Z,3.28
2022-09-14T14:11:06.007Z,2.95
2022-09-14T14:13:37.307Z,3.90
2022-09-14T14:16:19.850Z,3.63
2022-09-14T14:18:53.768Z,2.90
2022-09-14T14:21:28.685Z,3.65
2022-09-14T14:24:20.382Z,3.47
2022-09-14T14:26:50.509Z,3.50
2022-09-14T14:29:20.366Z,3.38
2022-09-14T14:31:48.880Z,3.72
2022-09-14T14:34:22.658Z,3.75
2022-09-14T14:36:51.146Z,3.67
2022-09-14T14:39:20.623Z,2.60
2022-09-14T14:41:49.800Z,3.40
2022-09-14T14:44:21.872Z,3.70
2022-09-14T14:46:50.154Z,3.05
2022-09-14T14:49:20.430Z,5.15
2022-09-14T14:51:49.888Z,6.60
2022-09-14T14:54:18.830Z,4.15
2022-09-14T14:56:48.636Z,4.30
2022-09-14T14:59:26.673Z,3.67
2022-09-14T15:01:56.299Z,3.65
2022-09-14T15:04:25.015Z,4.03
2022-09-14T15:06:53.377Z,3.30
2022-09-14T15:09:27.547Z,6.05
2022-09-14T15:11:56.673Z,4.35
2022-09-14T15:14:27.781Z,5.10
2022-09-14T15:16:59.934Z,4.45
2022-09-14T15:19:29.358Z,4.28
2022-09-14T15:22:01.403Z,3.13
2022-09-14T15:24:30.705Z,4.78
2022-09-14T15:26:59.419Z,3.25
2022-09-14T15:29:28.818Z,3.97
2022-09-14T15:31:57.249Z,5.43
2022-09-14T15:34:25.566Z,4.15
2022-09-14T15:36:54.885Z,4.53
2022-09-14T15:39:25.106Z,3.88
2022-09-14T15:41:54.049Z,5.35
2022-09-14T15:44:22.842Z,3.95
2022-09-14T15:46:53.098Z,4.57
2022-09-14T15:49:24.531Z,2.75
2022-09-14T15:51:55.285Z,3.72
2022-09-14T15:54:25.082Z,5.63
2022-09-14T15:56:56.719Z,5.10
2022-09-14T15:59:24.907Z,5.60
2022-09-14T16:01:55.130Z,4.13
2022-09-14T16:04:24.027Z,4.18
2022-09-14T16:06:52.208Z,3.13
2022-09-14T16:09:22.457Z,5.90
2022-09-14T16:11:51.364Z,3.55
2022-09-14T16:14:19.751Z,3.45
2022-09-14T16:16:47.982Z,3.58
2022-09-14T16:19:17.861Z,3.20
2022-09-14T16:21:48.416Z,2.90
2022-09-14T16:24:20.850Z,3.30
2022-09-14T16:26:49.025Z,3.88
2022-09-14T16:29:19.598Z,3.58
2022-09-14T16:31:49.632Z,4.50
2022-09-14T16:34:20.934Z,3.22
2022-09-14T16:36:49.830Z,4.15
2022-09-14T16:39:20.292Z,5.85
2022-09-14T16:41:51.213Z,3.92
2022-09-14T16:44:21.939Z,4.18
2022-09-14T16:46:50.850Z,4.70
2022-09-14T16:49:24.991Z,3.65
2022-09-14T16:51:57.177Z,4.28
2022-09-14T16:54:27.142Z,3.65
2022-09-14T16:56:57.064Z,3.30
2022-09-14T16:59:25.681Z,4.55
2022-09-14T17:01:55.299Z,3.35
2022-09-14T17:04:25.808Z,3.67
2022-09-14T17:06:56.137Z,3.85
2022-09-14T17:09:26.353Z,3.95
2022-09-14T17:11:55.865Z,5.38
2022-09-14T17:14:26.544Z,6.10
2022-09-14T17:16:54.928Z,4.57
2022-09-14T17:19:25.191Z,3.72
2022-09-14T17:21:53.641Z,3.88
2022-09-14T17:24:22.500Z,4.10
2022-09-14T17:26:51.236Z,3.63
2022-09-14T17:29:19.648Z,4.30
2022-09-14T17:31:47.876Z,3.25
2022-09-14T17:34:18.442Z,4.22
2022-09-14T17:36:48.016Z,3.92
2022-09-14T17:39:16.395Z,4.03
2022-09-14T17:41:45.315Z,3.72
2022-09-14T17:44:16.016Z,4.63
2022-09-14T17:46:51.975Z,5.68
2022-09-14T17:49:22.895Z,4.13
2022-09-14T17:51:52.802Z,4.97
2022-09-14T17:54:21.418Z,4.97
2022-09-14T17:56:50.782Z,4.53
2022-09-14T17:59:21.015Z,4.60
2022-09-14T18:01:49.670Z,5.63
2022-09-14T18:04:19.064Z,5.03
2022-09-14T18:06:49.567Z,5.22
2022-09-14T18:09:21.861Z,4.68
2022-09-14T18:11:51.155Z,4.10
2022-09-14T18:14:19.638Z,4.80
2022-09-14T18:16:48.102Z,5.07
2022-09-14T18:19:16.998Z,4.50
2022-09-14T18:21:50.227Z,3.88
2022-09-14T18:24:22.544Z,5.00
2022-09-14T18:26:50.888Z,4.95
2022-09-14T18:29:21.679Z,6.25
2022-09-14T18:31:50.635Z,5.90
2022-09-14T18:34:19.642Z,5.00
2022-09-14T18:36:48.018Z,5.82
2022-09-14T18:39:16.641Z,4.75
2022-09-14T18:41:46.189Z,5.10
2022-09-14T18:44:14.270Z,5.15
2022-09-14T18:46:44.303Z,5.72
2022-09-14T18:49:12.456Z,4.75
2022-09-14T18:51:40.763Z,5.38
2022-09-14T18:54:09.613Z,3.92
2022-09-14T18:56:38.320Z,4.57
2022-09-14T18:59:11.685Z,4.80
2022-09-14T19:01:42.591Z,5.47
2022-09-14T19:04:12.272Z,4.72
2022-09-14T19:06:42.036Z,5.05
2022-09-14T19:09:11.758Z,5.05
2022-09-14T19:11:40.124Z,4.93
2022-09-14T19:14:12.535Z,5.60
2022-09-14T19:16:41.912Z,4.90
2022-09-14T19:19:13.747Z,5.32
2022-09-14T19:21:43.177Z,5.63
2022-09-14T19:24:14.118Z,5.10
2022-09-14T19:26:45.502Z,5.35
2022-09-14T19:29:17.259Z,5.68
2022-09-14T19:31:48.396Z,4.80
2022-09-14T19:34:17.290Z,5.95
2022-09-14T19:36:46.078Z,5.15
2022-09-14T19:39:15.278Z,5.65
2022-09-14T19:41:43.694Z,4.30
2022-09-14T19:44:12.238Z,6.43
2022-09-14T19:46:42.911Z,5.15
2022-09-14T19:49:15.722Z,4.55
2022-09-14T19:51:44.394Z,6.68
2022-09-14T19:54:13.233Z,6.18
2022-09-14T19:56:41.975Z,4.65
2022-09-14T19:59:10.567Z,6.13
2022-09-14T20:01:40.273Z,5.63
2022-09-14T20:04:10.487Z,4.90
2022-09-14T20:06:40.303Z,6.53
2022-09-14T20:09:11.155Z,5.63
2022-09-14T20:11:41.523Z,5.45
2022-09-14T20:14:14.260Z,5.00
2022-09-14T20:16:44.355Z,5.03
2022-09-14T20:19:15.602Z,4.35
2022-09-14T20:21:44.929Z,4.97
2022-09-14T20:24:16.942Z,6.05
2022-09-14T20:26:46.246Z,8.13
2022-09-14T20:29:16.198Z,8.93
2022-09-14T20:31:44.733Z,6.28
2022-09-14T20:34:16.284Z,5.90
2022-09-14T20:36:45.310Z,4.78
2022-09-14T20:39:13.540Z,6.63
2022-09-14T20:41:42.202Z,4.75
2022-09-14T20:44:10.930Z,5.68
2022-09-14T20:46:41.379Z,5.18
2022-09-14T20:49:12.251Z,6.63
2022-09-14T20:51:42.843Z,5.78
2022-09-14T20:54:13.885Z,8.48
2022-09-14T20:56:43.189Z,8.93
2022-09-14T20:59:12.605Z,6.40
2022-09-14T21:01:42.938Z,6.30
2022-09-14T21:04:14.365Z,8.32
2022-09-14T21:06:47.078Z,7.15
2022-09-14T21:09:18.082Z,6.90
2022-09-14T21:11:46.850Z,5.93
2022-09-14T21:14:15.646Z,7.65
2022-09-14T21:16:46.198Z,6.30
2022-09-14T21:19:17.017Z,7.18
2022-09-14T21:21:48.094Z,6.07
2022-09-14T21:24:17.983Z,6.57
2022-09-14T21:26:46.663Z,7.82
2022-09-14T21:29:18.221Z,6.63
2022-09-14T21:31:46.519Z,6.10
2022-09-14T21:34:14.912Z,5.80
2022-09-14T21:36:46.231Z,7.57
2022-09-14T21:39:19.397Z,8.15
2022-09-14T21:41:49.108Z,8.00
2022-09-14T21:44:17.666Z,6.75
2022-09-14T21:46:45.949Z,5.60
2022-09-14T21:49:16.671Z,7.05
2022-09-14T21:51:46.840Z,6.32
2022-09-14T21:54:16.660Z,5.82
2022-09-14T21:56:46.913Z,6.32
2022-09-14T21:59:17.099Z,5.22
2022-09-14T22:01:46.250Z,5.68
2022-09-14T22:04:16.178Z,5.50
2022-09-14T22:06:45.592Z,5.75
2022-09-14T22:09:16.687Z,6.35
2022-09-14T22:11:45.449Z,7.15
2022-09-14T22:14:15.505Z,5.93
2022-09-14T22:16:44.194Z,6.10
2022-09-14T22:19:16.383Z,6.68
2022-09-14T22:21:45.060Z,5.95
2022-09-14T22:24:17.433Z,6.07
2022-09-14T22:26:47.223Z,7.13
2022-09-14T22:29:16.035Z,6.57
2022-09-14T22:31:45.647Z,6.93
2022-09-14T22:34:15.138Z,7.20
2022-09-14T22:36:44.137Z,6.90
2022-09-14T22:39:12.736Z,6.80
2022-09-14T22:41:43.020Z,7.30
2022-09-14T22:44:13.044Z,6.95
2022-09-14T22:46:41.699Z,6.18
2022-09-14T22:49:09.960Z,7.28
2022-09-14T22:51:38.208Z,6.80
2022-09-14T22:54:07.380Z,7.65
2022-09-14T22:56:38.018Z,8.35
2022-09-14T22:59:09.117Z,7.93
2022-09-14T23:01:39.756Z,8.60
2022-09-14T23:04:09.896Z,8.65
2022-09-14T23:06:40.695Z,8.25
2022-09-14T23:09:11.656Z,8.55
2022-09-14T23:11:40.326Z,7.10
2022-09-14T23:14:09.783Z,9.27
2022-09-14T23:16:37.978Z,7.90
2022-09-14T23:19:07.739Z,7.80
2022-09-14T23:21:36.583Z,7.47
2022-09-14T23:24:06.973Z,8.88
2022-09-14T23:26:35.471Z,9.00
2022-09-14T23:29:05.751Z,7.57
2022-09-14T23:31:36.018Z,10.20
2022-09-14T23:34:05.971Z,7.97
2022-09-14T23:36:34.427Z,8.30
2022-09-14T23:39:03.859Z,8.48
2022-09-14T23:41:32.436Z,9.02
2022-09-14T23:44:01.011Z,10.18
2022-09-14T23:46:29.358Z,6.55
2022-09-14T23:48:59.200Z,8.52
2022-09-14T23:51:27.603Z,9.98
2022-09-14T23:53:55.964Z,9.35
2022-09-14T23:56:24.670Z,9.88
2022-09-14T23:58:53.043Z,9.45
